sensor_id;sensor_type;location;lat;lon;timestamp;temperature;humidity
17202;DHT22;8717;53.588;10.176;2024-01-16T00:00:44;-0.80;99.90
17202;DHT22;8717;53.588;10.176;2024-01-16T00:03:10;-0.80;99.90
17202;DHT22;8717;53.588;10.176;2024-01-16T00:05:38;-0.80;99.90
17202;DHT22;8717;53.588;10.176;2024-01-16T00:08:05;-0.80;99.90
17202;DHT22;8717;53.588;10.176;2024-01-16T00:10:31;-0.80;99.90
17202;DHT22;8717;53.588;10.176;2024-01-16T00:12:58;-0.80;99.90
17202;DHT22;8717;53.588;10.176;2024-01-16T00:15:25;-0.80;99.90
17202;DHT22;8717;53.588;10.176;2024-01-16T00:17:52;-0.80;99.90
17202;DHT22;8717;53.588;10.176;2024-01-16T00:20:19;-0.80;99.90
17202;DHT22;8717;53.588;10.176;2024-01-16T00:22:48;-0.80;99.90
17202;DHT22;8717;53.588;10.176;2024-01-16T00:25:15;-0.80;99.90
17202;DHT22;8717;53.588;10.176;2024-01-16T00:27:45;-0.90;99.90
17202;DHT22;8717;53.588;10.176;2024-01-16T00:30:12;-0.90;99.90
17202;DHT22;8717;53.588;10.176;2024-01-16T00:32:40;-0.90;99.90
17202;DHT22;8717;53.588;10.176;2024-01-16T00:35:07;-0.90;99.90
17202;DHT22;8717;53.588;10.176;2024-01-16T00:37:35;-0.90;99.90
17202;DHT22;8717;53.588;10.176;2024-01-16T00:40:04;-0.90;99.90
17202;DHT22;8717;53.588;10.176;2024-01-16T00:42:31;-0.90;99.90
17202;DHT22;8717;53.588;10.176;2024-01-16T00:44:58;-0.90;99.90
17202;DHT22;8717;53.588;10.176;2024-01-16T00:47:24;-0.90;99.90
17202;DHT22;8717;53.588;10.176;2024-01-16T00:49:51;-0.90;99.90
17202;DHT22;8717;53.588;10.176;2024-01-16T00:52:18;-0.90;99.90
17202;DHT22;8717;53.588;10.176;2024-01-16T00:54:45;-0.80;99.90
17202;DHT22;8717;53.588;10.176;2024-01-16T00:57:13;-0.90;99.90
17202;DHT22;8717;53.588;10.176;2024-01-16T00:59:41;-0.90;99.90
17202;DHT22;8717;53.588;10.176;2024-01-16T01:02:08;-0.90;99.90
17202;DHT22;8717;53.588;10.176;2024-01-16T01:04:35;-0.80;99.90
17202;DHT22;8717;53.588;10.176;2024-01-16T01:07:02;-0.80;99.90
17202;DHT22;8717;53.588;10.176;2024-01-16T01:09:29;-0.90;99.90
17202;DHT22;8717;53.588;10.176;2024-01-16T01:11:58;-0.90;99.90
17202;DHT22;8717;53.588;10.176;2024-01-16T01:14:27;-0.80;99.90
17202;DHT22;8717;53.588;10.176;2024-01-16T01:16:55;-0.80;99.90
17202;DHT22;8717;53.588;10.176;2024-01-16T01:19:22;-0.80;99.90
17202;DHT22;8717;53.588;10.176;2024-01-16T01:21:49;-0.80;99.90
17202;DHT22;8717;53.588;10.176;2024-01-16T01:24:16;-0.80;99.90
17202;DHT22;8717;53.588;10.176;2024-01-16T01:26:43;-0.80;99.90
17202;DHT22;8717;53.588;10.176;2024-01-16T01:29:10;-0.80;99.90
17202;DHT22;8717;53.588;10.176;2024-01-16T01:31:38;-0.90;99.90
17202;DHT22;8717;53.588;10.176;2024-01-16T01:34:05;-0.90;99.90
17202;DHT22;8717;53.588;10.176;2024-01-16T01:36:32;-0.90;99.90
17202;DHT22;8717;53.588;10.176;2024-01-16T01:38:59;-0.90;99.90
17202;DHT22;8717;53.588;10.176;2024-01-16T01:41:26;-0.90;99.90
17202;DHT22;8717;53.588;10.176;2024-01-16T01:43:53;-1.00;99.90
17202;DHT22;8717;53.588;10.176;2024-01-16T01:46:19;-1.00;99.90
17202;DHT22;8717;53.588;10.176;2024-01-16T01:48:48;-1.00;99.90
17202;DHT22;8717;53.588;10.176;2024-01-16T01:51:18;-1.10;99.90
17202;DHT22;8717;53.588;10.176;2024-01-16T01:53:48;-1.10;99.90
17202;DHT22;8717;53.588;10.176;2024-01-16T01:56:17;-1.10;99.90
17202;DHT22;8717;53.588;10.176;2024-01-16T01:58:46;-1.10;99.90
17202;DHT22;8717;53.588;10.176;2024-01-16T02:01:15;-1.10;99.90
17202;DHT22;8717;53.588;10.176;2024-01-16T02:03:43;-1.10;99.90
17202;DHT22;8717;53.588;10.176;2024-01-16T02:06:12;-1.10;99.90
17202;DHT22;8717;53.588;10.176;2024-01-16T02:08:40;-1.10;99.90
17202;DHT22;8717;53.588;10.176;2024-01-16T02:11:07;-1.10;99.90
17202;DHT22;8717;53.588;10.176;2024-01-16T02:13:35;-1.10;99.90
17202;DHT22;8717;53.588;10.176;2024-01-16T02:16:02;-1.10;99.90
17202;DHT22;8717;53.588;10.176;2024-01-16T02:18:31;-1.10;99.90
17202;DHT22;8717;53.588;10.176;2024-01-16T02:21:00;-1.10;99.90
17202;DHT22;8717;53.588;10.176;2024-01-16T02:23:29;-1.10;99.90
17202;DHT22;8717;53.588;10.176;2024-01-16T02:25:57;-1.10;99.90
17202;DHT22;8717;53.588;10.176;2024-01-16T02:28:23;-1.10;99.90
17202;DHT22;8717;53.588;10.176;2024-01-16T02:30:50;-1.20;99.90
17202;DHT22;8717;53.588;10.176;2024-01-16T02:33:17;-1.20;99.90
17202;DHT22;8717;53.588;10.176;2024-01-16T02:35:44;-1.20;99.90
17202;DHT22;8717;53.588;10.176;2024-01-16T02:38:44;-1.20;99.90
17202;DHT22;8717;53.588;10.176;2024-01-16T02:41:13;-1.30;99.90
17202;DHT22;8717;53.588;10.176;2024-01-16T02:43:40;-1.30;99.90
17202;DHT22;8717;53.588;10.176;2024-01-16T02:46:06;-1.40;99.90
17202;DHT22;8717;53.588;10.176;2024-01-16T02:48:34;-1.40;99.90
17202;DHT22;8717;53.588;10.176;2024-01-16T02:51:01;-1.40;99.90
17202;DHT22;8717;53.588;10.176;2024-01-16T02:53:28;-1.40;99.90
17202;DHT22;8717;53.588;10.176;2024-01-16T02:55:57;-1.30;99.90
17202;DHT22;8717;53.588;10.176;2024-01-16T02:58:24;-1.30;99.90
17202;DHT22;8717;53.588;10.176;2024-01-16T03:00:51;-1.30;99.90
17202;DHT22;8717;53.588;10.176;2024-01-16T03:03:18;-1.30;99.90
17202;DHT22;8717;53.588;10.176;2024-01-16T03:05:46;-1.30;99.90
17202;DHT22;8717;53.588;10.176;2024-01-16T03:08:13;-1.30;99.90
17202;DHT22;8717;53.588;10.176;2024-01-16T03:10:40;-1.30;99.90
17202;DHT22;8717;53.588;10.176;2024-01-16T03:13:09;-1.30;99.90
17202;DHT22;8717;53.588;10.176;2024-01-16T03:15:36;-1.30;99.90
17202;DHT22;8717;53.588;10.176;2024-01-16T03:18:03;-1.40;99.90
17202;DHT22;8717;53.588;10.176;2024-01-16T03:20:30;-1.40;99.90
17202;DHT22;8717;53.588;10.176;2024-01-16T03:22:57;-1.40;99.90
17202;DHT22;8717;53.588;10.176;2024-01-16T03:25:24;-1.50;99.90
17202;DHT22;8717;53.588;10.176;2024-01-16T03:27:50;-1.50;99.90
17202;DHT22;8717;53.588;10.176;2024-01-16T03:30:18;-1.50;99.90
17202;DHT22;8717;53.588;10.176;2024-01-16T03:32:45;-1.60;99.90
17202;DHT22;8717;53.588;10.176;2024-01-16T03:35:12;-1.60;99.90
17202;DHT22;8717;53.588;10.176;2024-01-16T03:37:39;-1.60;99.90
17202;DHT22;8717;53.588;10.176;2024-01-16T03:40:07;-1.60;99.90
17202;DHT22;8717;53.588;10.176;2024-01-16T03:42:34;-1.70;99.90
17202;DHT22;8717;53.588;10.176;2024-01-16T03:45:01;-1.70;99.90
17202;DHT22;8717;53.588;10.176;2024-01-16T03:47:29;-1.70;99.90
17202;DHT22;8717;53.588;10.176;2024-01-16T03:49:56;-1.70;99.90
17202;DHT22;8717;53.588;10.176;2024-01-16T03:52:23;-1.60;99.90
17202;DHT22;8717;53.588;10.176;2024-01-16T03:54:49;-1.60;99.90
17202;DHT22;8717;53.588;10.176;2024-01-16T03:57:16;-1.60;99.90
17202;DHT22;8717;53.588;10.176;2024-01-16T03:59:43;-1.60;99.90
17202;DHT22;8717;53.588;10.176;2024-01-16T04:02:09;-1.60;99.90
17202;DHT22;8717;53.588;10.176;2024-01-16T04:04:37;-1.60;99.90
17202;DHT22;8717;53.588;10.176;2024-01-16T04:07:04;-1.60;99.90
17202;DHT22;8717;53.588;10.176;2024-01-16T04:09:31;-1.60;99.90
17202;DHT22;8717;53.588;10.176;2024-01-16T04:11:58;-1.60;99.90
17202;DHT22;8717;53.588;10.176;2024-01-16T04:14:24;-1.50;99.90
17202;DHT22;8717;53.588;10.176;2024-01-16T04:16:51;-1.50;99.90
17202;DHT22;8717;53.588;10.176;2024-01-16T04:19:18;-1.50;99.90
17202;DHT22;8717;53.588;10.176;2024-01-16T04:21:46;-1.50;99.90
17202;DHT22;8717;53.588;10.176;2024-01-16T04:24:13;-1.60;99.90
17202;DHT22;8717;53.588;10.176;2024-01-16T04:26:39;-1.60;99.90
17202;DHT22;8717;53.588;10.176;2024-01-16T04:29:06;-1.70;99.90
17202;DHT22;8717;53.588;10.176;2024-01-16T04:31:39;-1.80;99.90
17202;DHT22;8717;53.588;10.176;2024-01-16T04:34:07;-1.80;99.90
17202;DHT22;8717;53.588;10.176;2024-01-16T04:36:34;-1.90;99.90
17202;DHT22;8717;53.588;10.176;2024-01-16T04:39:02;-1.90;99.90
17202;DHT22;8717;53.588;10.176;2024-01-16T04:41:30;-2.00;99.90
17202;DHT22;8717;53.588;10.176;2024-01-16T04:43:57;-2.00;99.90
17202;DHT22;8717;53.588;10.176;2024-01-16T04:46:24;-2.00;99.90
17202;DHT22;8717;53.588;10.176;2024-01-16T04:48:51;-1.90;99.90
17202;DHT22;8717;53.588;10.176;2024-01-16T04:51:18;-1.90;99.90
17202;DHT22;8717;53.588;10.176;2024-01-16T04:53:45;-1.80;99.90
17202;DHT22;8717;53.588;10.176;2024-01-16T04:56:14;-1.80;99.90
17202;DHT22;8717;53.588;10.176;2024-01-16T04:58:41;-1.70;99.90
17202;DHT22;8717;53.588;10.176;2024-01-16T05:01:08;-1.60;99.90
17202;DHT22;8717;53.588;10.176;2024-01-16T05:03:35;-1.60;99.90
17202;DHT22;8717;53.588;10.176;2024-01-16T05:06:02;-1.60;99.90
17202;DHT22;8717;53.588;10.176;2024-01-16T05:08:29;-1.60;99.90
17202;DHT22;8717;53.588;10.176;2024-01-16T05:10:57;-1.50;99.90
17202;DHT22;8717;53.588;10.176;2024-01-16T05:13:26;-1.50;99.90
17202;DHT22;8717;53.588;10.176;2024-01-16T05:15:53;-1.50;99.90
17202;DHT22;8717;53.588;10.176;2024-01-16T05:18:20;-1.40;99.90
17202;DHT22;8717;53.588;10.176;2024-01-16T05:20:48;-1.40;99.90
17202;DHT22;8717;53.588;10.176;2024-01-16T05:23:15;-1.50;99.90
17202;DHT22;8717;53.588;10.176;2024-01-16T05:25:43;-1.50;99.90
17202;DHT22;8717;53.588;10.176;2024-01-16T05:28:10;-1.50;99.90
17202;DHT22;8717;53.588;10.176;2024-01-16T05:30:38;-1.50;99.90
17202;DHT22;8717;53.588;10.176;2024-01-16T05:33:05;-1.50;99.90
17202;DHT22;8717;53.588;10.176;2024-01-16T05:35:32;-1.50;99.90
17202;DHT22;8717;53.588;10.176;2024-01-16T05:38:00;-1.40;99.90
17202;DHT22;8717;53.588;10.176;2024-01-16T05:40:26;-1.40;99.90
17202;DHT22;8717;53.588;10.176;2024-01-16T05:42:53;-1.40;99.90
17202;DHT22;8717;53.588;10.176;2024-01-16T05:45:22;-1.30;99.90
17202;DHT22;8717;53.588;10.176;2024-01-16T05:47:50;-1.30;99.90
17202;DHT22;8717;53.588;10.176;2024-01-16T05:50:17;-1.30;99.90
17202;DHT22;8717;53.588;10.176;2024-01-16T05:52:44;-1.30;99.90
17202;DHT22;8717;53.588;10.176;2024-01-16T05:55:10;-1.20;99.90
17202;DHT22;8717;53.588;10.176;2024-01-16T05:57:36;-1.20;99.90
17202;DHT22;8717;53.588;10.176;2024-01-16T06:00:04;-1.10;99.90
17202;DHT22;8717;53.588;10.176;2024-01-16T06:02:32;-1.10;99.90
17202;DHT22;8717;53.588;10.176;2024-01-16T06:05:02;-1.10;99.90
17202;DHT22;8717;53.588;10.176;2024-01-16T06:07:29;-1.00;99.90
17202;DHT22;8717;53.588;10.176;2024-01-16T06:09:56;-1.00;99.90
17202;DHT22;8717;53.588;10.176;2024-01-16T06:12:22;-0.90;99.90
17202;DHT22;8717;53.588;10.176;2024-01-16T06:14:49;-0.90;99.90
17202;DHT22;8717;53.588;10.176;2024-01-16T06:17:16;-0.90;99.90
17202;DHT22;8717;53.588;10.176;2024-01-16T06:19:43;-0.90;99.90
17202;DHT22;8717;53.588;10.176;2024-01-16T06:22:11;-0.90;99.90
17202;DHT22;8717;53.588;10.176;2024-01-16T06:24:37;-0.80;99.90
17202;DHT22;8717;53.588;10.176;2024-01-16T06:27:05;-0.90;99.90
17202;DHT22;8717;53.588;10.176;2024-01-16T06:29:32;-0.80;99.90
17202;DHT22;8717;53.588;10.176;2024-01-16T06:31:59;-0.80;99.90
17202;DHT22;8717;53.588;10.176;2024-01-16T06:34:26;-0.80;99.90
17202;DHT22;8717;53.588;10.176;2024-01-16T06:36:53;-0.80;99.90
17202;DHT22;8717;53.588;10.176;2024-01-16T06:39:21;-0.80;99.90
17202;DHT22;8717;53.588;10.176;2024-01-16T06:41:48;-0.80;99.90
17202;DHT22;8717;53.588;10.176;2024-01-16T06:44:15;-0.80;99.90
17202;DHT22;8717;53.588;10.176;2024-01-16T06:46:41;-0.80;99.90
17202;DHT22;8717;53.588;10.176;2024-01-16T06:49:08;-0.80;99.90
17202;DHT22;8717;53.588;10.176;2024-01-16T06:51:35;-0.70;99.90
17202;DHT22;8717;53.588;10.176;2024-01-16T06:54:02;-0.70;99.90
17202;DHT22;8717;53.588;10.176;2024-01-16T06:56:31;-0.70;99.90
17202;DHT22;8717;53.588;10.176;2024-01-16T06:58:58;-0.70;99.90
17202;DHT22;8717;53.588;10.176;2024-01-16T07:01:26;-0.70;99.90
17202;DHT22;8717;53.588;10.176;2024-01-16T07:03:53;-0.70;99.90
17202;DHT22;8717;53.588;10.176;2024-01-16T07:06:20;-0.70;99.90
17202;DHT22;8717;53.588;10.176;2024-01-16T07:08:47;-0.60;99.90
17202;DHT22;8717;53.588;10.176;2024-01-16T07:11:14;-0.60;99.90
17202;DHT22;8717;53.588;10.176;2024-01-16T07:13:43;-0.60;99.90
17202;DHT22;8717;53.588;10.176;2024-01-16T07:16:10;-0.60;99.90
17202;DHT22;8717;53.588;10.176;2024-01-16T07:18:37;-0.60;99.90
17202;DHT22;8717;53.588;10.176;2024-01-16T07:21:04;-0.60;99.90
17202;DHT22;8717;53.588;10.176;2024-01-16T07:23:31;-0.60;99.90
17202;DHT22;8717;53.588;10.176;2024-01-16T07:25:57;-0.60;99.90
17202;DHT22;8717;53.588;10.176;2024-01-16T07:28:24;-0.60;99.90
17202;DHT22;8717;53.588;10.176;2024-01-16T07:30:53;-0.60;99.90
17202;DHT22;8717;53.588;10.176;2024-01-16T07:33:21;-0.60;99.90
17202;DHT22;8717;53.588;10.176;2024-01-16T07:35:47;-0.60;99.90
17202;DHT22;8717;53.588;10.176;2024-01-16T07:38:14;-0.60;99.90
17202;DHT22;8717;53.588;10.176;2024-01-16T07:40:41;-0.70;99.90
17202;DHT22;8717;53.588;10.176;2024-01-16T07:43:07;-0.70;99.90
17202;DHT22;8717;53.588;10.176;2024-01-16T07:45:34;-0.70;99.90
17202;DHT22;8717;53.588;10.176;2024-01-16T07:48:03;-0.70;99.90
17202;DHT22;8717;53.588;10.176;2024-01-16T07:50:30;-0.70;99.90
17202;DHT22;8717;53.588;10.176;2024-01-16T07:52:57;-0.70;99.90
17202;DHT22;8717;53.588;10.176;2024-01-16T07:55:23;-0.70;99.90
17202;DHT22;8717;53.588;10.176;2024-01-16T07:57:50;-0.70;99.90
17202;DHT22;8717;53.588;10.176;2024-01-16T08:00:17;-0.60;99.90
17202;DHT22;8717;53.588;10.176;2024-01-16T08:02:44;-0.60;99.90
17202;DHT22;8717;53.588;10.176;2024-01-16T08:05:12;-0.60;99.90
17202;DHT22;8717;53.588;10.176;2024-01-16T08:07:39;-0.60;99.90
17202;DHT22;8717;53.588;10.176;2024-01-16T08:10:09;-0.60;99.90
17202;DHT22;8717;53.588;10.176;2024-01-16T08:12:36;-0.50;99.90
17202;DHT22;8717;53.588;10.176;2024-01-16T08:15:04;-0.50;99.90
17202;DHT22;8717;53.588;10.176;2024-01-16T08:17:33;-0.50;99.90
17202;DHT22;8717;53.588;10.176;2024-01-16T08:19:59;-0.50;99.90
17202;DHT22;8717;53.588;10.176;2024-01-16T08:22:27;-0.50;99.90
17202;DHT22;8717;53.588;10.176;2024-01-16T08:24:54;-0.50;99.90
17202;DHT22;8717;53.588;10.176;2024-01-16T08:27:21;-0.50;99.90
17202;DHT22;8717;53.588;10.176;2024-01-16T08:29:48;-0.50;99.90
17202;DHT22;8717;53.588;10.176;2024-01-16T08:32:15;-0.40;99.90
17202;DHT22;8717;53.588;10.176;2024-01-16T08:34:42;-0.40;99.90
17202;DHT22;8717;53.588;10.176;2024-01-16T08:37:09;-0.30;99.90
17202;DHT22;8717;53.588;10.176;2024-01-16T08:39:37;-0.30;99.90
17202;DHT22;8717;53.588;10.176;2024-01-16T08:42:04;-0.30;99.90
17202;DHT22;8717;53.588;10.176;2024-01-16T08:44:31;-0.20;99.90
17202;DHT22;8717;53.588;10.176;2024-01-16T08:46:58;-0.20;99.90
17202;DHT22;8717;53.588;10.176;2024-01-16T08:49:26;-0.20;99.90
17202;DHT22;8717;53.588;10.176;2024-01-16T08:51:52;-0.20;99.90
17202;DHT22;8717;53.588;10.176;2024-01-16T08:54:19;-0.20;99.90
17202;DHT22;8717;53.588;10.176;2024-01-16T08:56:50;-0.20;99.90
17202;DHT22;8717;53.588;10.176;2024-01-16T08:59:16;-0.10;99.90
17202;DHT22;8717;53.588;10.176;2024-01-16T09:01:43;-0.10;99.90
17202;DHT22;8717;53.588;10.176;2024-01-16T09:04:10;-0.10;99.90
17202;DHT22;8717;53.588;10.176;2024-01-16T09:06:37;-0.10;99.90
17202;DHT22;8717;53.588;10.176;2024-01-16T09:09:04;-0.10;99.90
17202;DHT22;8717;53.588;10.176;2024-01-16T09:11:31;-0.10;99.90
17202;DHT22;8717;53.588;10.176;2024-01-16T09:13:59;-0.10;99.90
17202;DHT22;8717;53.588;10.176;2024-01-16T09:16:26;-0.10;99.90
17202;DHT22;8717;53.588;10.176;2024-01-16T09:18:53;-0.10;99.90
17202;DHT22;8717;53.588;10.176;2024-01-16T09:21:20;-0.10;99.90
17202;DHT22;8717;53.588;10.176;2024-01-16T09:23:47;-0.10;99.90
17202;DHT22;8717;53.588;10.176;2024-01-16T09:26:13;0.00;99.90
17202;DHT22;8717;53.588;10.176;2024-01-16T09:28:40;0.00;99.90
17202;DHT22;8717;53.588;10.176;2024-01-16T09:31:08;0.00;99.90
17202;DHT22;8717;53.588;10.176;2024-01-16T09:33:35;0.00;99.90
17202;DHT22;8717;53.588;10.176;2024-01-16T09:36:02;0.00;99.90
17202;DHT22;8717;53.588;10.176;2024-01-16T09:38:29;0.10;99.90
17202;DHT22;8717;53.588;10.176;2024-01-16T09:40:56;0.00;99.90
17202;DHT22;8717;53.588;10.176;2024-01-16T09:43:26;0.00;99.90
17202;DHT22;8717;53.588;10.176;2024-01-16T09:45:54;0.10;99.90
17202;DHT22;8717;53.588;10.176;2024-01-16T09:48:23;0.10;99.90
17202;DHT22;8717;53.588;10.176;2024-01-16T09:50:51;0.10;99.90
17202;DHT22;8717;53.588;10.176;2024-01-16T09:53:17;0.10;99.90
17202;DHT22;8717;53.588;10.176;2024-01-16T09:55:45;0.10;99.90
17202;DHT22;8717;53.588;10.176;2024-01-16T09:58:13;0.10;99.90
17202;DHT22;8717;53.588;10.176;2024-01-16T10:00:43;0.20;99.90
17202;DHT22;8717;53.588;10.176;2024-01-16T10:03:13;0.20;99.90
17202;DHT22;8717;53.588;10.176;2024-01-16T10:05:42;0.20;99.90
17202;DHT22;8717;53.588;10.176;2024-01-16T10:08:09;0.20;99.90
17202;DHT22;8717;53.588;10.176;2024-01-16T10:10:36;0.20;99.90
17202;DHT22;8717;53.588;10.176;2024-01-16T10:13:03;0.30;99.90
17202;DHT22;8717;53.588;10.176;2024-01-16T10:15:31;0.30;99.90
17202;DHT22;8717;53.588;10.176;2024-01-16T10:17:58;0.40;99.90
17202;DHT22;8717;53.588;10.176;2024-01-16T10:20:32;0.40;99.90
17202;DHT22;8717;53.588;10.176;2024-01-16T10:23:00;0.40;99.90
17202;DHT22;8717;53.588;10.176;2024-01-16T10:25:29;0.50;99.90
17202;DHT22;8717;53.588;10.176;2024-01-16T10:28:03;0.50;99.90
17202;DHT22;8717;53.588;10.176;2024-01-16T10:30:30;0.50;99.90
17202;DHT22;8717;53.588;10.176;2024-01-16T10:33:12;0.50;99.90
17202;DHT22;8717;53.588;10.176;2024-01-16T10:35:39;0.60;99.90
17202;DHT22;8717;53.588;10.176;2024-01-16T10:38:08;0.60;99.90
17202;DHT22;8717;53.588;10.176;2024-01-16T10:40:34;0.50;99.90
17202;DHT22;8717;53.588;10.176;2024-01-16T10:43:02;0.50;99.90
17202;DHT22;8717;53.588;10.176;2024-01-16T10:45:29;0.50;99.90
17202;DHT22;8717;53.588;10.176;2024-01-16T10:48:03;0.60;99.90
17202;DHT22;8717;53.588;10.176;2024-01-16T10:50:31;0.60;99.90
17202;DHT22;8717;53.588;10.176;2024-01-16T10:53:00;0.60;99.90
17202;DHT22;8717;53.588;10.176;2024-01-16T10:55:29;0.60;99.90
17202;DHT22;8717;53.588;10.176;2024-01-16T10:57:56;0.70;99.90
17202;DHT22;8717;53.588;10.176;2024-01-16T11:00:24;0.60;99.90
17202;DHT22;8717;53.588;10.176;2024-01-16T11:02:58;0.70;99.90
17202;DHT22;8717;53.588;10.176;2024-01-16T11:05:27;0.70;99.90
17202;DHT22;8717;53.588;10.176;2024-01-16T11:07:55;0.70;99.90
17202;DHT22;8717;53.588;10.176;2024-01-16T11:10:25;0.70;99.90
17202;DHT22;8717;53.588;10.176;2024-01-16T11:12:55;0.80;99.90
17202;DHT22;8717;53.588;10.176;2024-01-16T11:15:26;0.80;99.90
17202;DHT22;8717;53.588;10.176;2024-01-16T11:17:55;0.80;99.90
17202;DHT22;8717;53.588;10.176;2024-01-16T11:20:22;0.90;99.90
17202;DHT22;8717;53.588;10.176;2024-01-16T11:22:50;0.90;99.90
17202;DHT22;8717;53.588;10.176;2024-01-16T11:25:20;0.90;99.90
17202;DHT22;8717;53.588;10.176;2024-01-16T11:27:47;0.90;99.90
17202;DHT22;8717;53.588;10.176;2024-01-16T11:30:30;1.00;99.90
17202;DHT22;8717;53.588;10.176;2024-01-16T11:32:58;1.00;99.90
17202;DHT22;8717;53.588;10.176;2024-01-16T11:35:32;1.00;99.90
17202;DHT22;8717;53.588;10.176;2024-01-16T11:38:04;1.00;99.90
17202;DHT22;8717;53.588;10.176;2024-01-16T11:40:34;1.10;99.90
17202;DHT22;8717;53.588;10.176;2024-01-16T11:43:35;1.10;99.90
17202;DHT22;8717;53.588;10.176;2024-01-16T11:46:05;1.10;99.90
17202;DHT22;8717;53.588;10.176;2024-01-16T11:48:33;1.10;99.90
17202;DHT22;8717;53.588;10.176;2024-01-16T11:51:00;1.10;99.90
17202;DHT22;8717;53.588;10.176;2024-01-16T11:53:37;1.10;99.90
17202;DHT22;8717;53.588;10.176;2024-01-16T11:56:41;1.20;99.90
17202;DHT22;8717;53.588;10.176;2024-01-16T11:59:26;1.20;99.90
17202;DHT22;8717;53.588;10.176;2024-01-16T12:01:58;1.20;99.90
17202;DHT22;8717;53.588;10.176;2024-01-16T12:04:26;1.20;99.90
17202;DHT22;8717;53.588;10.176;2024-01-16T12:06:59;1.20;99.90
17202;DHT22;8717;53.588;10.176;2024-01-16T12:09:27;1.20;99.90
17202;DHT22;8717;53.588;10.176;2024-01-16T12:11:58;1.20;99.90
17202;DHT22;8717;53.588;10.176;2024-01-16T12:14:26;1.20;99.90
17202;DHT22;8717;53.588;10.176;2024-01-16T12:17:08;1.20;99.90
17202;DHT22;8717;53.588;10.176;2024-01-16T12:19:35;1.20;99.90
17202;DHT22;8717;53.588;10.176;2024-01-16T12:22:02;1.10;99.90
17202;DHT22;8717;53.588;10.176;2024-01-16T12:24:29;1.10;99.90
17202;DHT22;8717;53.588;10.176;2024-01-16T12:26:57;1.10;99.90
17202;DHT22;8717;53.588;10.176;2024-01-16T12:29:24;1.10;99.90
17202;DHT22;8717;53.588;10.176;2024-01-16T12:32:06;1.10;99.90
17202;DHT22;8717;53.588;10.176;2024-01-16T12:34:34;1.10;99.90
17202;DHT22;8717;53.588;10.176;2024-01-16T12:37:09;1.20;99.90
17202;DHT22;8717;53.588;10.176;2024-01-16T12:39:36;1.30;99.90
17202;DHT22;8717;53.588;10.176;2024-01-16T12:42:05;1.30;99.90
17202;DHT22;8717;53.588;10.176;2024-01-16T12:44:32;1.40;99.90
17202;DHT22;8717;53.588;10.176;2024-01-16T12:46:58;1.40;99.90
17202;DHT22;8717;53.588;10.176;2024-01-16T12:49:28;1.50;99.90
17202;DHT22;8717;53.588;10.176;2024-01-16T12:52:18;1.50;99.90
17202;DHT22;8717;53.588;10.176;2024-01-16T12:54:46;1.50;99.90
17202;DHT22;8717;53.588;10.176;2024-01-16T12:57:17;1.50;99.90
17202;DHT22;8717;53.588;10.176;2024-01-16T12:59:45;1.50;99.90
17202;DHT22;8717;53.588;10.176;2024-01-16T13:02:20;1.50;99.90
17202;DHT22;8717;53.588;10.176;2024-01-16T13:04:56;1.50;99.90
17202;DHT22;8717;53.588;10.176;2024-01-16T13:07:24;1.50;99.90
17202;DHT22;8717;53.588;10.176;2024-01-16T13:10:04;1.50;99.90
17202;DHT22;8717;53.588;10.176;2024-01-16T13:12:32;1.40;99.90
17202;DHT22;8717;53.588;10.176;2024-01-16T13:14:59;1.50;99.90
17202;DHT22;8717;53.588;10.176;2024-01-16T13:17:25;1.50;99.90
17202;DHT22;8717;53.588;10.176;2024-01-16T13:19:53;1.50;99.90
17202;DHT22;8717;53.588;10.176;2024-01-16T13:22:20;1.40;99.90
17202;DHT22;8717;53.588;10.176;2024-01-16T13:24:47;1.40;99.90
17202;DHT22;8717;53.588;10.176;2024-01-16T13:27:14;1.40;99.90
17202;DHT22;8717;53.588;10.176;2024-01-16T13:29:40;1.40;99.90
17202;DHT22;8717;53.588;10.176;2024-01-16T13:32:07;1.40;99.90
17202;DHT22;8717;53.588;10.176;2024-01-16T13:34:34;1.30;99.90
17202;DHT22;8717;53.588;10.176;2024-01-16T13:37:03;1.30;99.90
17202;DHT22;8717;53.588;10.176;2024-01-16T13:39:31;1.40;99.90
17202;DHT22;8717;53.588;10.176;2024-01-16T13:42:02;1.30;99.90
17202;DHT22;8717;53.588;10.176;2024-01-16T13:44:31;1.30;99.90
17202;DHT22;8717;53.588;10.176;2024-01-16T13:46:58;1.30;99.90
17202;DHT22;8717;53.588;10.176;2024-01-16T13:49:24;1.30;99.90
17202;DHT22;8717;53.588;10.176;2024-01-16T13:51:51;1.30;99.90
17202;DHT22;8717;53.588;10.176;2024-01-16T13:54:19;1.30;99.90
17202;DHT22;8717;53.588;10.176;2024-01-16T13:56:46;1.30;99.90
17202;DHT22;8717;53.588;10.176;2024-01-16T13:59:12;1.20;99.90
17202;DHT22;8717;53.588;10.176;2024-01-16T14:01:39;1.20;99.90
17202;DHT22;8717;53.588;10.176;2024-01-16T14:04:06;1.20;99.90
17202;DHT22;8717;53.588;10.176;2024-01-16T14:06:33;1.10;99.90
17202;DHT22;8717;53.588;10.176;2024-01-16T14:08:59;1.10;99.90
17202;DHT22;8717;53.588;10.176;2024-01-16T14:11:29;1.10;99.90
17202;DHT22;8717;53.588;10.176;2024-01-16T14:13:57;1.00;99.90
17202;DHT22;8717;53.588;10.176;2024-01-16T14:16:24;1.00;99.90
17202;DHT22;8717;53.588;10.176;2024-01-16T14:18:54;1.00;99.90
17202;DHT22;8717;53.588;10.176;2024-01-16T14:21:21;1.00;99.90
17202;DHT22;8717;53.588;10.176;2024-01-16T14:23:47;1.00;99.90
17202;DHT22;8717;53.588;10.176;2024-01-16T14:26:14;0.90;99.90
17202;DHT22;8717;53.588;10.176;2024-01-16T14:28:42;0.90;99.90
17202;DHT22;8717;53.588;10.176;2024-01-16T14:31:09;1.00;99.90
17202;DHT22;8717;53.588;10.176;2024-01-16T14:33:36;1.00;99.90
17202;DHT22;8717;53.588;10.176;2024-01-16T14:36:04;1.00;99.90
17202;DHT22;8717;53.588;10.176;2024-01-16T14:38:31;1.00;99.90
17202;DHT22;8717;53.588;10.176;2024-01-16T14:40:58;1.00;99.90
17202;DHT22;8717;53.588;10.176;2024-01-16T14:43:24;1.00;99.90
17202;DHT22;8717;53.588;10.176;2024-01-16T14:45:52;1.00;99.90
17202;DHT22;8717;53.588;10.176;2024-01-16T14:48:19;1.00;99.90
17202;DHT22;8717;53.588;10.176;2024-01-16T14:50:46;0.90;99.90
17202;DHT22;8717;53.588;10.176;2024-01-16T14:53:14;0.90;99.90
17202;DHT22;8717;53.588;10.176;2024-01-16T14:55:41;0.90;99.90
17202;DHT22;8717;53.588;10.176;2024-01-16T14:58:08;0.90;99.90
17202;DHT22;8717;53.588;10.176;2024-01-16T15:00:35;0.90;99.90
17202;DHT22;8717;53.588;10.176;2024-01-16T15:03:04;0.90;99.90
17202;DHT22;8717;53.588;10.176;2024-01-16T15:05:30;0.80;99.90
17202;DHT22;8717;53.588;10.176;2024-01-16T15:07:57;0.80;99.90
17202;DHT22;8717;53.588;10.176;2024-01-16T15:10:24;0.80;99.90
17202;DHT22;8717;53.588;10.176;2024-01-16T15:12:51;0.70;99.90
17202;DHT22;8717;53.588;10.176;2024-01-16T15:15:18;0.70;99.90
17202;DHT22;8717;53.588;10.176;2024-01-16T15:17:44;0.70;99.90
17202;DHT22;8717;53.588;10.176;2024-01-16T15:20:13;0.70;99.90
17202;DHT22;8717;53.588;10.176;2024-01-16T15:22:41;0.70;99.90
17202;DHT22;8717;53.588;10.176;2024-01-16T15:25:09;0.70;99.90
17202;DHT22;8717;53.588;10.176;2024-01-16T15:27:37;0.70;99.90
17202;DHT22;8717;53.588;10.176;2024-01-16T15:30:05;0.70;99.90
17202;DHT22;8717;53.588;10.176;2024-01-16T15:32:33;0.70;99.90
17202;DHT22;8717;53.588;10.176;2024-01-16T15:35:00;0.70;99.90
17202;DHT22;8717;53.588;10.176;2024-01-16T15:37:28;0.70;99.90
17202;DHT22;8717;53.588;10.176;2024-01-16T15:39:57;0.70;99.90
17202;DHT22;8717;53.588;10.176;2024-01-16T15:42:25;0.70;99.90